Time;durP1;ratioP1;P1;durP2;ratioP2;P2;SDS_P1;SDS_P2;PMS_P1;PMS_P2;Temp;Humidity;BMP_temperature;BMP_pressure;BME280_temperature;BME280_humidity;BME280_pressure;Samples;Min_cycle;Max_cycle;Signal;HPM_P1;HPM_P2
2022/04/29 00:02:31;;;;;;;31.77;17.80;;;;;;;6.44;71.44;100086.92;4273340;81;20997;-89
2022/04/29 00:08:32;;;;;;;39.25;20.30;;;;;;;6.42;71.62;100082.94;4290111;81;21075;-91
2022/04/29 00:14:34;;;;;;;36.30;20.55;;;;;;;6.24;71.68;100082.94;4278008;81;21062;-88
2022/04/29 00:20:38;;;;;;;35.30;20.20;;;;;;;6.12;71.14;100082.76;4276431;81;21142;-87
2022/04/29 00:26:40;;;;;;;35.13;20.45;;;;;;;6.03;72.45;100079.23;4223597;81;21166;-88
2022/04/29 00:32:43;;;;;;;42.20;22.10;;;;;;;6.04;72.85;100080.86;4192615;83;21111;-90
2022/04/29 00:38:44;;;;;;;38.13;19.48;;;;;;;5.86;72.19;100081.94;4180574;83;22330;-89
2022/04/29 00:44:46;;;;;;;46.77;23.55;;;;;;;5.69;72.79;100081.07;4176926;83;21106;-88
2022/04/29 00:50:47;;;;;;;38.50;21.12;;;;;;;5.56;72.57;100076.59;4186764;83;21995;-87
2022/04/29 00:56:51;;;;;;;35.73;19.32;;;;;;;5.52;73.77;100078.31;4187040;83;21081;-89
2022/04/29 01:02:55;;;;;;;45.23;21.73;;;;;;;5.47;73.91;100073.02;4187765;83;21538;-89
2022/04/29 01:08:57;;;;;;;43.42;21.50;;;;;;;5.36;74.25;100074.42;4175485;83;21894;-88
2022/04/29 01:15:04;;;;;;;44.95;22.50;;;;;;;5.40;74.73;100066.72;4171758;83;21111;-88
2022/04/29 01:21:06;;;;;;;42.23;23.40;;;;;;;5.48;74.80;100059.70;4188181;83;21689;-89
2022/04/29 01:27:12;;;;;;;37.78;19.55;;;;;;;5.34;74.42;100063.87;4184060;83;21075;-88
2022/04/29 01:33:17;;;;;;;27.17;13.50;;;;;;;5.25;75.31;100056.27;4167815;83;21626;-88
2022/04/29 01:39:22;;;;;;;33.05;19.23;;;;;;;5.35;75.80;100051.92;4179685;83;21542;-88
2022/04/29 01:45:24;;;;;;;40.43;20.90;;;;;;;5.41;75.54;100045.77;4184392;83;21075;-88
2022/04/29 01:51:39;;;;;;;42.23;20.97;;;;;;;5.38;75.53;100047.22;4177827;83;21124;-88
2022/04/29 01:57:40;;;;;;;48.73;23.07;;;;;;;5.34;75.49;100041.38;4184860;83;21068;-90
2022/04/29 02:03:43;;;;;;;44.38;22.93;;;;;;;5.25;75.62;100048.67;4186265;83;21080;-88
2022/04/29 02:09:45;;;;;;;45.40;22.80;;;;;;;5.16;75.59;100052.73;4112165;85;21086;-88
2022/04/29 02:15:48;;;;;;;40.85;23.65;;;;;;;4.75;74.64;100053.56;4188875;83;21924;-89
2022/04/29 02:21:52;;;;;;;31.87;18.75;;;;;;;4.35;75.87;100054.59;4111076;84;73202;-84
2022/04/29 02:27:53;;;;;;;39.50;21.97;;;;;;;4.35;76.65;100060.02;4011192;87;21089;-84
2022/04/29 02:33:55;;;;;;;44.27;22.87;;;;;;;4.33;76.51;100057.62;4003450;87;21556;-84
2022/04/29 02:39:57;;;;;;;41.85;23.15;;;;;;;4.22;76.42;100050.03;4016578;87;21083;-84
2022/04/29 02:45:58;;;;;;;38.45;22.13;;;;;;;4.13;76.50;100047.81;3998318;86;21127;-85
2022/04/29 02:52:00;;;;;;;40.23;23.07;;;;;;;3.94;77.08;100046.63;4001728;88;21107;-84
2022/04/29 02:58:01;;;;;;;40.50;22.55;;;;;;;3.74;77.17;100046.28;3995106;88;21028;-84
2022/04/29 03:04:03;;;;;;;51.45;24.95;;;;;;;3.79;77.25;100043.46;3996471;87;21124;-84
2022/04/29 03:10:06;;;;;;;46.70;24.63;;;;;;;3.77;77.46;100048.38;4012377;87;22349;-84
2022/04/29 03:16:07;;;;;;;49.18;25.75;;;;;;;3.82;78.09;100051.75;3990675;87;21088;-84
2022/04/29 03:22:10;;;;;;;47.33;27.25;;;;;;;3.86;77.77;100058.19;4015586;86;21041;-83
2022/04/29 03:28:11;;;;;;;46.48;25.97;;;;;;;3.91;78.17;100059.43;4103602;84;21072;-84
2022/04/29 03:34:13;;;;;;;48.40;28.42;;;;;;;4.00;78.69;100063.01;4069074;86;20993;-84
2022/04/29 03:40:15;;;;;;;47.60;26.07;;;;;;;4.09;78.76;100065.23;4092915;85;21008;-84
2022/04/29 03:46:16;;;;;;;53.65;29.15;;;;;;;4.21;79.62;100070.12;4056213;86;22109;-84
2022/04/29 03:52:50;;;;;;;45.28;28.98;;;;;;;4.36;79.81;100075.16;4063543;85;21059;-84
2022/04/29 03:58:51;;;;;;;52.65;31.57;;;;;;;4.51;80.56;100076.95;4050866;86;21031;-85
2022/04/29 04:04:53;;;;;;;47.58;29.37;;;;;;;4.58;80.69;100076.52;4064502;85;28533;-84
2022/04/29 04:10:54;;;;;;;45.78;27.90;;;;;;;4.71;80.91;100079.72;4246776;82;21057;-84
2022/04/29 04:16:56;;;;;;;41.30;26.30;;;;;;;4.81;80.63;100079.44;4261773;82;21022;-84
2022/04/29 04:22:58;;;;;;;57.58;27.80;;;;;;;4.92;80.88;100083.50;4262565;81;21549;-85
2022/04/29 04:28:59;;;;;;;51.58;29.70;;;;;;;5.02;81.01;100079.17;4275885;81;21046;-85
2022/04/29 04:35:04;;;;;;;53.13;27.25;;;;;;;5.16;81.07;100088.56;4267920;81;20955;-84
2022/04/29 04:41:07;;;;;;;52.50;27.95;;;;;;;5.21;80.77;100092.50;4273511;81;21001;-85
2022/04/29 04:47:09;;;;;;;49.63;26.62;;;;;;;5.23;80.61;100097.84;4285961;81;21559;-85
2022/04/29 04:53:29;;;;;;;40.90;23.18;;;;;;;5.35;81.00;100106.23;4282368;81;21106;-84
2022/04/29 04:59:31;;;;;;;39.78;23.87;;;;;;;5.61;80.64;100106.30;4283153;81;20995;-84
2022/04/29 05:05:32;;;;;;;38.80;22.30;;;;;;;5.93;80.62;100111.37;4290628;81;21075;-85
2022/04/29 05:11:36;;;;;;;48.17;27.65;;;;;;;6.18;80.42;100114.13;4282896;81;21091;-84
2022/04/29 05:17:40;;;;;;;44.98;26.55;;;;;;;6.43;79.82;100113.08;4287615;81;21085;-84
2022/04/29 05:24:02;;;;;;;48.48;28.62;;;;;;;6.75;80.18;100118.81;4059863;86;21102;-85
2022/04/29 05:30:21;;;;;;;51.10;29.90;;;;;;;7.20;80.09;100106.95;4264895;82;21022;-85
2022/04/29 05:36:41;;;;;;;46.23;28.20;;;;;;;7.61;79.88;100109.24;4279121;82;21974;-84
2022/04/29 05:42:45;;;;;;;48.20;29.05;;;;;;;7.99;79.31;100112.72;4276383;82;21004;-85
2022/04/29 05:48:57;;;;;;;50.30;29.48;;;;;;;8.15;78.94;100117.02;4274158;82;21548;-85
2022/04/29 05:54:53;;;;;;;52.50;31.00;;;;;;;8.34;78.67;100116.03;4269341;81;20981;-84
2022/04/29 06:00:58;;;;;;;50.20;29.75;;;;;;;8.33;78.25;100126.70;4184392;83;21044;-86
2022/04/29 06:06:59;;;;;;;47.55;27.98;;;;;;;8.62;78.24;100132.09;4269290;82;21003;-85
2022/04/29 06:13:01;;;;;;;46.23;28.17;;;;;;;9.05;78.05;100132.47;4270786;82;21058;-84
2022/04/29 06:19:04;;;;;;;46.80;27.00;;;;;;;9.45;77.25;100134.03;4261707;82;21090;-85
2022/04/29 06:25:18;;;;;;;50.85;28.90;;;;;;;9.87;77.55;100142.81;4178708;82;21088;-85
2022/04/29 06:31:20;;;;;;;41.35;24.80;;;;;;;10.40;77.19;100134.34;4271541;82;20988;-85
2022/04/29 06:37:26;;;;;;;36.93;23.57;;;;;;;10.86;76.54;100135.91;4258954;82;21136;-85
2022/04/29 06:43:30;;;;;;;38.33;22.85;;;;;;;11.09;75.55;100140.23;4270498;82;21016;-84
2022/04/29 06:49:36;;;;;;;39.38;22.32;;;;;;;11.33;75.19;100141.48;4240557;82;21079;-85
2022/04/29 06:55:56;;;;;;;48.08;23.75;;;;;;;11.35;74.47;100147.41;4270360;82;21230;-85
2022/04/29 07:01:58;;;;;;;37.33;22.55;;;;;;;11.55;74.39;100153.22;4275455;82;21058;-86
2022/04/29 07:08:00;;;;;;;51.58;23.83;;;;;;;11.86;73.34;100157.92;4274612;82;22005;-85
2022/04/29 07:14:08;;;;;;;37.53;23.95;;;;;;;12.28;72.86;100158.34;4214893;82;21048;-84
2022/04/29 07:20:14;;;;;;;36.03;22.52;;;;;;;12.47;69.77;100162.50;4264662;82;21049;-85
2022/04/29 07:26:16;;;;;;;35.73;21.50;;;;;;;12.83;70.95;100154.99;4282888;81;21038;-85
2022/04/29 07:32:18;;;;;;;41.20;25.55;;;;;;;13.09;70.19;100155.17;4286086;81;21025;-85
2022/04/29 07:44:50;;;;;;;34.65;22.80;;;;;;;13.86;68.85;100161.47;4303692;81;20979;-85
2022/04/29 07:50:53;;;;;;;37.75;25.27;;;;;;;14.43;67.67;100155.47;4289781;81;21923;-85
2022/04/29 07:56:56;;;;;;;35.10;22.45;;;;;;;15.34;65.03;100153.84;4288644;81;21050;-86
2022/04/29 08:03:01;;;;;;;31.17;20.50;;;;;;;16.03;66.46;100152.92;4281340;81;21643;-86
2022/04/29 08:09:23;;;;;;;33.98;21.42;;;;;;;16.00;65.84;100152.31;4280450;81;22026;-85
2022/04/29 08:15:27;;;;;;;30.43;19.37;;;;;;;15.83;64.49;100146.06;4287136;81;21088;-86
2022/04/29 08:21:30;;;;;;;34.90;20.72;;;;;;;16.40;64.08;100149.99;4287351;81;21025;-86
2022/04/29 08:27:31;;;;;;;29.20;19.20;;;;;;;16.85;62.64;100140.58;4269816;80;21044;-86
2022/04/29 08:33:33;;;;;;;33.55;21.73;;;;;;;17.34;59.17;100135.78;4265844;82;22049;-84
2022/04/29 08:39:38;;;;;;;26.35;14.38;;;;;;;17.09;53.51;100127.44;4260332;82;20986;-86
2022/04/29 08:45:42;;;;;;;24.87;14.15;;;;;;;17.31;58.36;100132.42;4268326;82;21006;-86
2022/04/29 08:52:03;;;;;;;23.07;12.03;;;;;;;17.60;58.61;100118.87;4264352;82;21096;-86
2022/04/29 09:04:24;;;;;;;17.42;9.68;;;;;;;17.75;50.52;100120.44;4262462;82;21024;-86
2022/04/29 09:10:30;;;;;;;12.33;8.48;;;;;;;17.75;54.22;100105.80;4268962;82;20989;-85
2022/04/29 09:16:37;;;;;;;12.15;5.42;;;;;;;16.98;53.49;100103.09;4248998;82;21131;-84
2022/04/29 09:22:39;;;;;;;;;;;;;;;16.48;52.48;100100.52;4269616;82;21908;-86
2022/04/29 09:28:46;;;;;;;10.08;4.20;;;;;;;15.97;49.82;100109.47;4261078;82;20182;-85
2022/04/29 09:34:58;;;;;;;8.63;4.22;;;;;;;15.59;50.87;100101.09;4164460;84;21116;-84
2022/04/29 09:40:59;;;;;;;6.33;3.92;;;;;;;15.54;51.24;100100.86;4256558;82;21006;-85
2022/04/29 09:47:19;;;;;;;6.00;3.27;;;;;;;15.53;50.65;100096.49;4260881;82;20997;-84
2022/04/29 09:53:26;;;;;;;5.33;3.37;;;;;;;15.60;50.38;100097.14;4261919;82;21028;-86
2022/04/29 09:59:42;;;;;;;7.47;3.50;;;;;;;15.87;49.56;100092.23;4263897;82;21024;-84
2022/04/29 10:05:43;;;;;;;7.73;4.13;;;;;;;16.00;48.67;100087.41;4265866;81;21176;-84
2022/04/29 10:11:46;;;;;;;8.70;3.90;;;;;;;16.34;45.45;100080.50;4269780;82;21036;-86
2022/04/29 10:24:29;;;;;;;5.85;3.90;;;;;;;17.03;46.77;100071.50;4259884;82;22340;-86
2022/04/29 10:30:37;;;;;;;7.85;4.05;;;;;;;17.79;46.61;100063.67;4264555;82;21103;-86
2022/04/29 10:36:45;;;;;;;9.18;4.12;;;;;;;17.68;46.05;100058.13;4258387;82;21105;-85
2022/04/29 10:43:08;;;;;;;10.55;4.17;;;;;;;17.50;45.46;100057.94;4266116;82;21955;-85
2022/04/29 10:49:30;;;;;;;9.40;4.15;;;;;;;17.40;45.24;100054.56;4260440;82;22275;-85
2022/04/29 10:55:51;;;;;;;9.13;5.28;;;;;;;17.44;44.84;100042.88;3981082;88;21024;-85
2022/04/29 11:02:13;;;;;;;8.58;5.45;;;;;;;18.85;43.77;100033.05;4203640;82;21412;-85
2022/04/29 11:08:13;;;;;;;8.35;5.10;;;;;;;19.79;41.85;100021.83;4228035;82;21576;-84
2022/04/29 11:14:15;;;;;;;7.42;4.78;;;;;;;20.47;34.95;100019.87;4218695;82;21017;-86
2022/04/29 11:20:24;;;;;;;8.68;4.35;;;;;;;21.25;39.61;100009.86;4215331;82;21055;-84
2022/04/29 11:26:25;;;;;;;8.83;4.08;;;;;;;22.23;36.80;100006.70;4220494;83;21059;-84
2022/04/29 11:32:30;;;;;;;7.87;4.95;;;;;;;20.94;35.27;99981.88;4207545;83;21066;-84
2022/04/29 11:38:44;;;;;;;6.67;4.12;;;;;;;20.94;35.27;99981.88;4283085;81;21123;-84
2022/04/29 11:44:49;;;;;;;9.10;5.25;;;;;;;20.20;37.19;99996.80;4280445;81;21638;-85
2022/04/29 11:50:49;;;;;;;6.10;3.40;;;;;;;21.39;36.02;99989.50;4284090;81;21040;-85
2022/04/29 11:56:51;;;;;;;6.00;3.67;;;;;;;21.44;35.67;99985.44;4286064;81;20976;-84
2022/04/29 12:02:54;;;;;;;5.28;3.65;;;;;;;21.94;32.66;99982.59;4277762;81;20991;-85
2022/04/29 12:08:56;;;;;;;4.65;3.58;;;;;;;21.10;34.01;99971.70;4281058;81;21479;-84
2022/04/29 12:14:59;;;;;;;9.80;4.42;;;;;;;19.73;28.26;99954.62;4283286;81;21064;-85
2022/04/29 12:21:00;;;;;;;7.58;4.30;;;;;;;18.89;32.21;99958.89;4283287;81;21052;-84
2022/04/29 12:27:06;;;;;;;7.75;4.40;;;;;;;18.55;33.76;99955.95;4279455;81;21036;-85
2022/04/29 12:39:43;;;;;;;5.90;4.12;;;;;;;19.33;33.85;99953.41;4232006;83;21008;-85
2022/04/29 12:45:45;;;;;;;8.33;4.53;;;;;;;19.88;31.76;99940.16;4237809;83;21084;-85
2022/04/29 12:51:58;;;;;;;7.05;4.40;;;;;;;19.93;32.49;99934.73;4237015;82;20967;-84
2022/04/29 12:58:16;;;;;;;7.97;4.08;;;;;;;19.59;32.96;99930.53;4234383;82;21063;-84
2022/04/29 13:04:19;;;;;;;10.95;4.03;;;;;;;19.31;33.30;99930.81;4272359;82;21012;-85
2022/04/29 13:10:45;;;;;;;8.93;4.42;;;;;;;19.02;33.52;99924.51;4228058;82;21040;-85
2022/04/29 13:16:47;;;;;;;8.88;3.95;;;;;;;18.50;33.16;99918.95;4274511;82;21528;-85
2022/04/29 13:22:48;;;;;;;7.00;4.65;;;;;;;18.30;34.11;99912.31;4269610;82;21024;-84
2022/04/29 13:28:51;;;;;;;5.55;4.00;;;;;;;19.23;34.33;99910.46;4269570;82;21403;-85
2022/04/29 13:34:53;;;;;;;5.75;3.58;;;;;;;19.81;34.10;99891.59;4268176;82;21034;-85
2022/04/29 13:40:54;;;;;;;10.48;3.98;;;;;;;19.62;34.08;99892.21;4270147;82;21098;-84
2022/04/29 13:46:56;;;;;;;7.35;3.60;;;;;;;19.69;32.86;99884.41;4269148;82;21045;-84
2022/04/29 13:53:09;;;;;;;6.45;3.90;;;;;;;19.80;33.03;99876.14;4268361;82;21021;-86
2022/04/29 13:59:11;;;;;;;4.25;3.25;;;;;;;19.60;33.55;99870.23;4277836;82;21512;-85
2022/04/29 14:05:13;;;;;;;6.75;3.80;;;;;;;20.01;33.38;99866.13;4269344;82;21052;-85
2022/04/29 14:11:16;;;;;;;8.73;3.08;;;;;;;20.19;32.22;99864.54;4241505;82;21802;-85
2022/04/29 14:17:17;;;;;;;6.30;3.37;;;;;;;20.25;32.80;99856.53;4271597;82;21020;-85
2022/04/29 14:23:18;;;;;;;5.03;3.22;;;;;;;20.57;32.65;99859.61;4241808;82;21118;-84
2022/04/29 14:29:20;;;;;;;5.90;3.42;;;;;;;20.63;32.06;99849.58;4155197;83;21108;-83
2022/04/29 14:35:22;;;;;;;5.50;3.00;;;;;;;20.05;31.79;99846.05;4139106;85;21058;-83
2022/04/29 14:41:23;;;;;;;7.40;2.92;;;;;;;19.63;32.25;99844.41;4125372;84;22262;-84
2022/04/29 14:47:25;;;;;;;5.20;2.83;;;;;;;19.07;32.04;99840.23;4127337;85;20987;-84
2022/04/29 14:53:30;;;;;;;7.83;4.37;;;;;;;18.51;32.03;99832.41;4133842;85;21060;-84
2022/04/29 14:59:31;;;;;;;5.90;3.20;;;;;;;18.09;32.20;99830.66;4118034;85;21058;-83
2022/04/29 15:05:33;;;;;;;8.00;3.10;;;;;;;17.78;32.38;99829.45;4082982;85;21666;-83
2022/04/29 15:17:54;;;;;;;5.85;3.17;;;;;;;17.32;32.89;99825.43;4127189;85;21087;-84
2022/04/29 15:23:56;;;;;;;6.37;3.27;;;;;;;17.26;32.91;99824.88;4083815;86;21095;-86
2022/04/29 15:29:57;;;;;;;6.00;3.05;;;;;;;17.23;33.09;99828.63;4099932;85;21007;-83
2022/04/29 15:35:59;;;;;;;7.35;3.08;;;;;;;17.19;33.35;99825.69;4119691;85;21659;-83
2022/04/29 15:42:07;;;;;;;5.05;3.30;;;;;;;17.14;33.44;99824.70;4113183;85;22012;-85
2022/04/29 15:48:09;;;;;;;8.58;4.03;;;;;;;17.13;33.24;99815.60;4121758;85;21047;-83
2022/04/29 15:54:12;;;;;;;4.25;2.80;;;;;;;17.04;33.70;99814.43;4121129;85;21018;-83
2022/04/29 16:00:15;;;;;;;3.92;2.52;;;;;;;16.88;33.79;99814.86;4118423;85;21990;-83
2022/04/29 16:06:21;;;;;;;9.85;3.30;;;;;;;16.82;34.21;99811.50;4118551;85;21553;-84
2022/04/29 16:12:22;;;;;;;5.03;2.83;;;;;;;16.74;34.29;99815.48;4118263;85;21678;-83
2022/04/29 16:31:03;;;;;;;6.08;2.87;;;;;;;16.24;36.09;99802.80;4240595;81;21042;-83
2022/04/29 16:37:06;;;;;;;4.58;2.52;;;;;;;16.04;36.64;99801.56;4148398;84;21168;-83
2022/04/29 16:43:09;;;;;;;6.97;3.02;;;;;;;15.86;36.66;99809.03;4217897;83;21046;-83
2022/04/29 16:49:11;;;;;;;6.58;3.33;;;;;;;15.82;37.18;99804.88;4257727;82;20979;-85
2022/04/29 16:55:14;;;;;;;3.58;2.30;;;;;;;15.68;37.58;99805.44;4268496;82;22112;-84
2022/04/29 17:01:20;;;;;;;4.95;2.70;;;;;;;15.50;37.57;99811.66;4275322;82;21026;-83
2022/04/29 17:07:22;;;;;;;8.47;3.50;;;;;;;15.43;37.79;99807.50;4276162;81;20988;-84
2022/04/29 17:13:23;;;;;;;8.75;3.33;;;;;;;15.25;37.72;99814.86;4263217;82;21066;-82
2022/04/29 17:19:25;;;;;;;5.85;3.20;;;;;;;15.15;38.04;99812.05;4276736;82;21548;-84
2022/04/29 17:25:27;;;;;;;6.30;3.50;;;;;;;15.03;38.75;99811.80;4271836;82;21840;-83
2022/04/29 17:31:29;;;;;;;6.58;2.85;;;;;;;14.95;38.40;99814.30;4271425;82;20998;-83
2022/04/29 17:37:30;;;;;;;10.65;4.42;;;;;;;14.79;38.48;99811.03;4274989;82;21003;-83
2022/04/29 17:43:32;;;;;;;10.10;4.00;;;;;;;14.64;38.83;99812.12;4270024;82;21505;-84
2022/04/29 17:49:36;;;;;;;14.93;5.92;;;;;;;14.43;38.95;99818.81;4266973;82;21008;-82
2022/04/29 17:55:38;;;;;;;14.30;6.33;;;;;;;14.20;39.08;99827.22;4239910;82;21255;-83
2022/04/29 18:01:39;;;;;;;20.55;11.15;;;;;;;13.98;39.94;99825.42;4254363;82;21070;-84
2022/04/29 18:07:47;;;;;;;31.23;11.28;;;;;;;13.72;40.31;99835.16;4274081;82;21018;-84
2022/04/29 18:13:50;;;;;;;28.85;12.80;;;;;;;13.42;40.91;99845.99;4240539;82;21007;-82
2022/04/29 18:19:53;;;;;;;28.98;12.25;;;;;;;13.07;41.89;99852.36;4155477;84;21376;-84
2022/04/29 18:25:54;;;;;;;30.70;13.83;;;;;;;12.72;43.05;99858.67;4225237;83;21055;-82
2022/04/29 18:31:56;;;;;;;20.77;11.38;;;;;;;12.46;43.58;99864.91;4201194;83;21827;-82
2022/04/29 18:37:59;;;;;;;28.73;9.68;;;;;;;12.26;44.43;99864.75;4208020;83;21943;-82
2022/04/29 18:44:00;;;;;;;20.05;8.60;;;;;;;12.04;44.91;99875.89;4203636;83;20985;-83
2022/04/29 18:50:03;;;;;;;20.68;9.33;;;;;;;11.83;45.72;99884.29;4201023;82;21122;-82
2022/04/29 18:56:05;;;;;;;20.17;9.70;;;;;;;11.69;46.50;99879.89;4201126;82;21526;-83
2022/04/29 19:02:06;;;;;;;19.20;10.32;;;;;;;11.56;47.01;99883.31;4197915;82;21021;-83
2022/04/29 19:08:09;;;;;;;26.55;12.93;;;;;;;11.34;47.69;99888.72;4088683;82;9999520;-83
2022/04/29 19:14:10;;;;;;;23.92;12.90;;;;;;;11.21;48.92;99880.39;4204085;83;21073;-83
2022/04/29 19:20:12;;;;;;;32.25;15.03;;;;;;;11.16;49.36;99890.25;4205351;82;21072;-82
2022/04/29 19:26:15;;;;;;;28.95;13.78;;;;;;;10.98;49.27;99883.79;4205373;83;21001;-83
2022/04/29 19:32:17;;;;;;;43.68;21.02;;;;;;;10.82;49.99;99888.48;4203892;83;21005;-84
2022/04/29 19:38:18;;;;;;;43.73;21.82;;;;;;;10.61;50.35;99889.91;4206120;83;20965;-84
2022/04/29 19:44:20;;;;;;;42.23;20.82;;;;;;;10.45;50.50;99891.84;4200096;83;21025;-84
2022/04/29 19:50:21;;;;;;;40.12;20.50;;;;;;;10.30;51.05;99894.00;4207696;83;21883;-84
2022/04/29 19:56:23;;;;;;;39.92;20.00;;;;;;;10.12;51.36;99884.52;4205821;83;21980;-83
2022/04/29 20:08:44;;;;;;;27.15;15.38;;;;;;;9.86;52.83;99886.33;4202420;82;21006;-83
2022/04/29 20:14:53;;;;;;;32.23;16.80;;;;;;;9.70;53.57;99883.30;4205787;82;21001;-85
2022/04/29 20:21:02;;;;;;;39.83;20.50;;;;;;;9.50;53.91;99887.27;4124155;85;20980;-84
2022/04/29 20:27:04;;;;;;;50.98;24.23;;;;;;;9.29;54.48;99887.99;4128135;84;21411;-83
2022/04/29 20:33:05;;;;;;;34.38;18.20;;;;;;;9.04;54.65;99889.16;4069566;86;21022;-83
2022/04/29 20:45:28;;;;;;;51.88;25.20;;;;;;;8.82;56.57;99893.72;4239272;82;21427;-84
2022/04/29 20:51:29;;;;;;;44.77;24.25;;;;;;;8.45;56.34;99893.48;4239004;82;21526;-84
2022/04/29 20:57:32;;;;;;;39.73;19.60;;;;;;;8.12;57.01;99897.34;4241094;82;21104;-84
2022/04/29 21:03:34;;;;;;;32.83;16.90;;;;;;;7.98;57.69;99898.45;4225133;81;21625;-84
2022/04/29 21:09:36;;;;;;;33.45;17.70;;;;;;;7.67;57.37;99901.39;4247244;81;20961;-84
2022/04/29 21:15:38;;;;;;;32.50;17.50;;;;;;;7.58;58.35;99912.34;4247980;81;21010;-84
2022/04/29 21:21:40;;;;;;;40.45;18.23;;;;;;;7.23;60.22;99911.02;4239274;82;21120;-84
2022/04/29 21:27:43;;;;;;;31.23;15.75;;;;;;;6.82;60.65;99908.21;4153756;84;21027;-84
2022/04/29 21:33:44;;;;;;;35.13;18.02;;;;;;;6.51;63.94;99914.52;4154429;84;21033;-84
2022/04/29 21:39:46;;;;;;;35.35;19.98;;;;;;;6.32;62.34;99910.02;4245739;82;21029;-83
2022/04/29 21:45:49;;;;;;;40.63;23.12;;;;;;;6.21;61.66;99918.28;4242950;81;20994;-84
2022/04/29 21:51:54;;;;;;;52.88;26.70;;;;;;;6.12;64.86;99912.07;4247399;82;21032;-84
2022/04/29 21:57:54;;;;;;;51.00;25.25;;;;;;;6.01;63.65;99919.75;4250192;82;21095;-84
2022/04/29 22:03:55;;;;;;;56.80;27.67;;;;;;;5.95;68.20;99922.39;4250282;81;21033;-83
2022/04/29 22:09:57;;;;;;;43.25;23.98;;;;;;;5.62;68.92;99921.27;4241919;82;21856;-83
2022/04/29 22:16:00;;;;;;;56.88;26.55;;;;;;;5.31;69.34;99912.47;4252040;82;21157;-84
2022/04/29 22:22:06;;;;;;;60.23;31.30;;;;;;;5.13;69.39;99917.65;4240035;82;21108;-84
2022/04/29 22:28:11;;;;;;;58.08;29.63;;;;;;;5.08;67.55;99915.08;4245981;82;21075;-84
2022/04/29 22:34:12;;;;;;;56.70;30.20;;;;;;;5.05;67.24;99908.92;4268879;81;21698;-84
2022/04/29 22:40:15;;;;;;;52.00;26.60;;;;;;;4.96;67.70;99910.83;4276043;82;21032;-84
2022/04/29 22:46:16;;;;;;;44.35;22.65;;;;;;;4.93;67.63;99910.66;4278534;82;20994;-84
2022/04/29 22:52:19;;;;;;;39.95;19.85;;;;;;;4.88;67.59;99905.38;4272940;82;21046;-84
2022/04/29 22:58:22;;;;;;;32.75;17.25;;;;;;;4.78;68.01;99911.88;4273772;82;21461;-84
2022/04/29 23:04:23;;;;;;;37.98;18.15;;;;;;;4.86;69.14;99909.75;4270399;82;21084;-84
2022/04/29 23:10:25;;;;;;;33.02;17.80;;;;;;;4.92;68.32;99905.00;4275346;82;21649;-84
2022/04/29 23:16:26;;;;;;;30.27;16.10;;;;;;;4.73;68.93;99904.69;4270209;82;21014;-83
2022/04/29 23:22:28;;;;;;;31.73;17.98;;;;;;;4.54;68.53;99900.65;4264101;82;21091;-84
2022/04/29 23:28:29;;;;;;;35.03;16.35;;;;;;;4.35;69.10;99902.80;4272642;81;21021;-84
2022/04/29 23:34:31;;;;;;;45.05;22.90;;;;;;;4.23;70.05;99904.72;4277047;82;22018;-83
2022/04/29 23:40:32;;;;;;;42.78;21.85;;;;;;;4.21;70.01;99904.80;4271987;82;21544;-84
2022/04/29 23:46:34;;;;;;;50.00;24.47;;;;;;;4.13;70.22;99890.09;4271116;82;21560;-84
2022/04/29 23:52:35;;;;;;;39.35;22.35;;;;;;;4.00;70.23;99878.78;4153622;84;21571;-83
2022/04/29 23:58:36;;;;;;;47.45;23.35;;;;;;;4.09;71.17;99878.27;4148044;84;21072;-83
